sensor_id;sensor_type;location;lat;lon;timestamp;P1;durP1;ratioP1;P2;durP2;ratioP2
55330;SDS011;58851;42.984;20.336;2022-08-05T00:01:02;22.40;;;20.27;;
55330;SDS011;58851;42.984;20.336;2022-08-05T00:03:53;22.98;;;21.08;;
55330;SDS011;58851;42.984;20.336;2022-08-05T00:06:19;24.05;;;22.02;;
55330;SDS011;58851;42.984;20.336;2022-08-05T00:08:44;25.20;;;22.75;;
55330;SDS011;58851;42.984;20.336;2022-08-05T00:11:12;22.83;;;20.75;;
55330;SDS011;58851;42.984;20.336;2022-08-05T00:13:40;23.33;;;21.63;;
55330;SDS011;58851;42.984;20.336;2022-08-05T00:16:08;24.17;;;22.30;;
55330;SDS011;58851;42.984;20.336;2022-08-05T00:18:35;22.83;;;20.85;;
55330;SDS011;58851;42.984;20.336;2022-08-05T00:21:02;24.92;;;22.67;;
55330;SDS011;58851;42.984;20.336;2022-08-05T00:23:28;23.70;;;21.67;;
55330;SDS011;58851;42.984;20.336;2022-08-05T00:25:54;22.77;;;20.80;;
55330;SDS011;58851;42.984;20.336;2022-08-05T00:28:19;23.63;;;21.73;;
55330;SDS011;58851;42.984;20.336;2022-08-05T00:30:45;23.02;;;20.80;;
55330;SDS011;58851;42.984;20.336;2022-08-05T00:33:11;22.40;;;20.25;;
55330;SDS011;58851;42.984;20.336;2022-08-05T00:35:37;21.45;;;19.92;;
55330;SDS011;58851;42.984;20.336;2022-08-05T00:38:03;22.35;;;20.58;;
55330;SDS011;58851;42.984;20.336;2022-08-05T00:40:29;23.55;;;21.48;;
55330;SDS011;58851;42.984;20.336;2022-08-05T00:42:55;26.80;;;22.05;;
55330;SDS011;58851;42.984;20.336;2022-08-05T00:45:22;25.10;;;23.08;;
55330;SDS011;58851;42.984;20.336;2022-08-05T00:47:48;23.77;;;21.48;;
55330;SDS011;58851;42.984;20.336;2022-08-05T00:50:14;23.38;;;21.13;;
55330;SDS011;58851;42.984;20.336;2022-08-05T00:52:40;22.38;;;20.05;;
55330;SDS011;58851;42.984;20.336;2022-08-05T00:55:06;23.60;;;21.40;;
55330;SDS011;58851;42.984;20.336;2022-08-05T00:57:32;21.80;;;19.88;;
55330;SDS011;58851;42.984;20.336;2022-08-05T00:59:58;22.33;;;20.55;;
55330;SDS011;58851;42.984;20.336;2022-08-05T01:02:23;22.20;;;20.08;;
55330;SDS011;58851;42.984;20.336;2022-08-05T01:04:49;25.13;;;23.13;;
55330;SDS011;58851;42.984;20.336;2022-08-05T01:07:15;21.70;;;19.83;;
55330;SDS011;58851;42.984;20.336;2022-08-05T01:09:41;22.83;;;20.98;;
55330;SDS011;58851;42.984;20.336;2022-08-05T01:12:08;24.50;;;21.88;;
55330;SDS011;58851;42.984;20.336;2022-08-05T01:14:58;21.90;;;19.75;;
55330;SDS011;58851;42.984;20.336;2022-08-05T01:17:30;22.85;;;20.67;;
55330;SDS011;58851;42.984;20.336;2022-08-05T01:26:32;23.35;;;21.48;;
55330;SDS011;58851;42.984;20.336;2022-08-05T01:29:22;21.83;;;20.00;;
55330;SDS011;58851;42.984;20.336;2022-08-05T01:31:54;22.40;;;20.63;;
55330;SDS011;58851;42.984;20.336;2022-08-05T01:34:25;23.90;;;21.55;;
55330;SDS011;58851;42.984;20.336;2022-08-05T01:36:57;22.83;;;20.77;;
55330;SDS011;58851;42.984;20.336;2022-08-05T01:39:29;21.65;;;19.95;;
55330;SDS011;58851;42.984;20.336;2022-08-05T01:41:56;22.88;;;21.17;;
55330;SDS011;58851;42.984;20.336;2022-08-05T01:44:24;24.60;;;22.50;;
55330;SDS011;58851;42.984;20.336;2022-08-05T01:46:50;22.80;;;20.75;;
55330;SDS011;58851;42.984;20.336;2022-08-05T01:49:19;25.83;;;23.60;;
55330;SDS011;58851;42.984;20.336;2022-08-05T01:51:47;23.35;;;20.92;;
55330;SDS011;58851;42.984;20.336;2022-08-05T01:54:15;24.50;;;22.58;;
55330;SDS011;58851;42.984;20.336;2022-08-05T01:56:43;22.15;;;19.92;;
55330;SDS011;58851;42.984;20.336;2022-08-05T01:59:13;24.90;;;23.10;;
55330;SDS011;58851;42.984;20.336;2022-08-05T02:01:41;27.05;;;24.90;;
55330;SDS011;58851;42.984;20.336;2022-08-05T02:04:10;29.33;;;26.77;;
55330;SDS011;58851;42.984;20.336;2022-08-05T02:06:38;26.52;;;24.13;;
55330;SDS011;58851;42.984;20.336;2022-08-05T02:09:04;24.45;;;22.65;;
55330;SDS011;58851;42.984;20.336;2022-08-05T02:11:41;26.38;;;24.38;;
55330;SDS011;58851;42.984;20.336;2022-08-05T02:17:30;33.05;;;30.38;;
55330;SDS011;58851;42.984;20.336;2022-08-05T02:20:03;28.55;;;26.33;;
55330;SDS011;58851;42.984;20.336;2022-08-05T02:22:35;27.27;;;25.10;;
55330;SDS011;58851;42.984;20.336;2022-08-05T02:25:25;26.58;;;24.25;;
55330;SDS011;58851;42.984;20.336;2022-08-05T02:27:55;29.33;;;27.25;;
55330;SDS011;58851;42.984;20.336;2022-08-05T02:30:22;30.70;;;28.13;;
55330;SDS011;58851;42.984;20.336;2022-08-05T02:32:51;25.42;;;23.08;;
55330;SDS011;58851;42.984;20.336;2022-08-05T02:35:20;26.30;;;23.50;;
55330;SDS011;58851;42.984;20.336;2022-08-05T02:37:49;29.45;;;27.27;;
55330;SDS011;58851;42.984;20.336;2022-08-05T02:40:18;31.20;;;28.70;;
55330;SDS011;58851;42.984;20.336;2022-08-05T02:42:44;26.25;;;24.15;;
55330;SDS011;58851;42.984;20.336;2022-08-05T02:45:11;27.95;;;25.92;;
55330;SDS011;58851;42.984;20.336;2022-08-05T02:47:40;29.33;;;26.63;;
55330;SDS011;58851;42.984;20.336;2022-08-05T02:50:06;25.40;;;23.13;;
55330;SDS011;58851;42.984;20.336;2022-08-05T02:52:33;28.17;;;26.10;;
55330;SDS011;58851;42.984;20.336;2022-08-05T02:55:01;29.15;;;26.52;;
55330;SDS011;58851;42.984;20.336;2022-08-05T02:57:29;28.90;;;26.80;;
55330;SDS011;58851;42.984;20.336;2022-08-05T02:59:57;26.75;;;24.35;;
55330;SDS011;58851;42.984;20.336;2022-08-05T03:02:27;30.92;;;28.70;;
55330;SDS011;58851;42.984;20.336;2022-08-05T03:04:57;32.22;;;29.02;;
55330;SDS011;58851;42.984;20.336;2022-08-05T03:07:24;28.02;;;25.83;;
55330;SDS011;58851;42.984;20.336;2022-08-05T03:09:51;28.75;;;26.50;;
55330;SDS011;58851;42.984;20.336;2022-08-05T03:14:55;33.22;;;30.30;;
55330;SDS011;58851;42.984;20.336;2022-08-05T03:17:21;25.10;;;22.90;;
55330;SDS011;58851;42.984;20.336;2022-08-05T03:19:47;29.00;;;26.90;;
55330;SDS011;58851;42.984;20.336;2022-08-05T03:22:13;28.88;;;26.75;;
55330;SDS011;58851;42.984;20.336;2022-08-05T03:24:39;25.85;;;23.63;;
55330;SDS011;58851;42.984;20.336;2022-08-05T03:27:06;26.25;;;23.70;;
55330;SDS011;58851;42.984;20.336;2022-08-05T03:29:32;28.30;;;24.13;;
55330;SDS011;58851;42.984;20.336;2022-08-05T03:31:58;26.27;;;24.17;;
55330;SDS011;58851;42.984;20.336;2022-08-05T03:34:25;28.33;;;26.23;;
55330;SDS011;58851;42.984;20.336;2022-08-05T03:36:51;29.95;;;27.45;;
55330;SDS011;58851;42.984;20.336;2022-08-05T03:39:18;28.13;;;25.85;;
55330;SDS011;58851;42.984;20.336;2022-08-05T03:41:43;27.80;;;25.30;;
55330;SDS011;58851;42.984;20.336;2022-08-05T03:44:09;33.90;;;31.02;;
55330;SDS011;58851;42.984;20.336;2022-08-05T03:46:36;28.65;;;26.42;;
55330;SDS011;58851;42.984;20.336;2022-08-05T03:49:02;32.17;;;29.77;;
55330;SDS011;58851;42.984;20.336;2022-08-05T03:51:29;28.88;;;26.88;;
55330;SDS011;58851;42.984;20.336;2022-08-05T03:54:29;30.70;;;28.35;;
55330;SDS011;58851;42.984;20.336;2022-08-05T03:56:59;39.33;;;36.95;;
55330;SDS011;58851;42.984;20.336;2022-08-05T03:59:32;34.10;;;31.48;;
55330;SDS011;58851;42.984;20.336;2022-08-05T04:02:01;33.85;;;31.35;;
55330;SDS011;58851;42.984;20.336;2022-08-05T04:04:28;35.13;;;32.00;;
55330;SDS011;58851;42.984;20.336;2022-08-05T04:06:56;30.85;;;28.05;;
55330;SDS011;58851;42.984;20.336;2022-08-05T04:09:24;30.30;;;27.85;;
55330;SDS011;58851;42.984;20.336;2022-08-05T04:11:51;35.50;;;32.70;;
55330;SDS011;58851;42.984;20.336;2022-08-05T04:14:17;29.45;;;27.08;;
55330;SDS011;58851;42.984;20.336;2022-08-05T04:16:43;30.00;;;27.75;;
55330;SDS011;58851;42.984;20.336;2022-08-05T04:19:10;32.80;;;30.27;;
55330;SDS011;58851;42.984;20.336;2022-08-05T04:21:37;39.28;;;36.60;;
55330;SDS011;58851;42.984;20.336;2022-08-05T04:24:03;34.28;;;31.80;;
55330;SDS011;58851;42.984;20.336;2022-08-05T04:26:29;36.35;;;33.58;;
55330;SDS011;58851;42.984;20.336;2022-08-05T04:28:55;31.95;;;29.58;;
55330;SDS011;58851;42.984;20.336;2022-08-05T04:31:21;31.95;;;29.50;;
55330;SDS011;58851;42.984;20.336;2022-08-05T04:33:47;31.30;;;28.77;;
55330;SDS011;58851;42.984;20.336;2022-08-05T04:36:13;37.42;;;34.42;;
55330;SDS011;58851;42.984;20.336;2022-08-05T04:38:43;33.47;;;30.88;;
55330;SDS011;58851;42.984;20.336;2022-08-05T04:41:09;32.67;;;30.10;;
55330;SDS011;58851;42.984;20.336;2022-08-05T04:43:36;36.15;;;33.75;;
55330;SDS011;58851;42.984;20.336;2022-08-05T04:46:02;35.28;;;32.72;;
55330;SDS011;58851;42.984;20.336;2022-08-05T04:48:29;40.97;;;38.35;;
55330;SDS011;58851;42.984;20.336;2022-08-05T04:50:55;43.38;;;40.47;;
55330;SDS011;58851;42.984;20.336;2022-08-05T04:53:21;44.42;;;41.25;;
55330;SDS011;58851;42.984;20.336;2022-08-05T04:55:47;43.70;;;41.10;;
55330;SDS011;58851;42.984;20.336;2022-08-05T04:58:14;48.08;;;44.85;;
55330;SDS011;58851;42.984;20.336;2022-08-05T05:00:41;39.30;;;36.17;;
55330;SDS011;58851;42.984;20.336;2022-08-05T05:03:07;35.38;;;32.97;;
55330;SDS011;58851;42.984;20.336;2022-08-05T05:05:34;45.38;;;42.08;;
55330;SDS011;58851;42.984;20.336;2022-08-05T05:08:02;40.38;;;37.50;;
55330;SDS011;58851;42.984;20.336;2022-08-05T05:10:39;45.47;;;42.33;;
55330;SDS011;58851;42.984;20.336;2022-08-05T05:13:08;52.10;;;48.85;;
55330;SDS011;58851;42.984;20.336;2022-08-05T05:15:35;52.45;;;49.08;;
55330;SDS011;58851;42.984;20.336;2022-08-05T05:18:01;40.63;;;37.72;;
55330;SDS011;58851;42.984;20.336;2022-08-05T05:20:27;48.63;;;45.58;;
55330;SDS011;58851;42.984;20.336;2022-08-05T05:22:53;41.25;;;38.67;;
55330;SDS011;58851;42.984;20.336;2022-08-05T05:25:18;39.03;;;36.28;;
55330;SDS011;58851;42.984;20.336;2022-08-05T05:27:44;41.28;;;38.25;;
55330;SDS011;58851;42.984;20.336;2022-08-05T05:30:11;46.20;;;43.40;;
55330;SDS011;58851;42.984;20.336;2022-08-05T05:32:40;45.20;;;42.28;;
55330;SDS011;58851;42.984;20.336;2022-08-05T05:35:06;42.33;;;39.50;;
55330;SDS011;58851;42.984;20.336;2022-08-05T05:37:32;41.47;;;38.25;;
55330;SDS011;58851;42.984;20.336;2022-08-05T05:39:58;39.22;;;36.63;;
55330;SDS011;58851;42.984;20.336;2022-08-05T05:42:23;54.88;;;51.83;;
55330;SDS011;58851;42.984;20.336;2022-08-05T05:44:49;53.17;;;49.53;;
55330;SDS011;58851;42.984;20.336;2022-08-05T05:47:15;38.90;;;36.08;;
55330;SDS011;58851;42.984;20.336;2022-08-05T05:49:41;63.05;;;59.13;;
55330;SDS011;58851;42.984;20.336;2022-08-05T05:52:06;53.97;;;50.10;;
55330;SDS011;58851;42.984;20.336;2022-08-05T05:54:32;47.63;;;43.95;;
55330;SDS011;58851;42.984;20.336;2022-08-05T05:56:58;48.35;;;45.13;;
55330;SDS011;58851;42.984;20.336;2022-08-05T05:59:24;41.67;;;38.25;;
55330;SDS011;58851;42.984;20.336;2022-08-05T06:01:50;62.78;;;58.70;;
55330;SDS011;58851;42.984;20.336;2022-08-05T06:04:15;58.00;;;53.80;;
55330;SDS011;58851;42.984;20.336;2022-08-05T06:06:42;57.03;;;53.20;;
55330;SDS011;58851;42.984;20.336;2022-08-05T06:09:09;53.00;;;49.40;;
55330;SDS011;58851;42.984;20.336;2022-08-05T06:11:35;54.40;;;50.83;;
55330;SDS011;58851;42.984;20.336;2022-08-05T06:14:01;59.45;;;55.45;;
55330;SDS011;58851;42.984;20.336;2022-08-05T06:16:27;64.22;;;59.78;;
55330;SDS011;58851;42.984;20.336;2022-08-05T06:18:53;56.60;;;52.95;;
55330;SDS011;58851;42.984;20.336;2022-08-05T06:21:19;73.70;;;69.22;;
55330;SDS011;58851;42.984;20.336;2022-08-05T06:23:45;63.47;;;59.60;;
55330;SDS011;58851;42.984;20.336;2022-08-05T06:26:11;59.70;;;56.20;;
55330;SDS011;58851;42.984;20.336;2022-08-05T06:28:37;62.85;;;58.83;;
55330;SDS011;58851;42.984;20.336;2022-08-05T06:31:02;50.00;;;46.50;;
55330;SDS011;58851;42.984;20.336;2022-08-05T06:33:28;74.60;;;69.80;;
55330;SDS011;58851;42.984;20.336;2022-08-05T06:35:54;66.05;;;61.22;;
55330;SDS011;58851;42.984;20.336;2022-08-05T06:38:20;71.82;;;67.30;;
55330;SDS011;58851;42.984;20.336;2022-08-05T06:40:46;63.70;;;59.38;;
55330;SDS011;58851;42.984;20.336;2022-08-05T06:43:12;71.00;;;66.35;;
55330;SDS011;58851;42.984;20.336;2022-08-05T06:45:38;60.78;;;56.97;;
55330;SDS011;58851;42.984;20.336;2022-08-05T06:48:04;66.75;;;62.67;;
55330;SDS011;58851;42.984;20.336;2022-08-05T06:50:30;70.25;;;65.10;;
55330;SDS011;58851;42.984;20.336;2022-08-05T06:52:56;60.72;;;56.58;;
55330;SDS011;58851;42.984;20.336;2022-08-05T06:55:21;54.45;;;50.63;;
55330;SDS011;58851;42.984;20.336;2022-08-05T06:57:47;56.25;;;51.80;;
55330;SDS011;58851;42.984;20.336;2022-08-05T07:00:13;45.40;;;41.97;;
55330;SDS011;58851;42.984;20.336;2022-08-05T07:02:43;37.80;;;34.90;;
55330;SDS011;58851;42.984;20.336;2022-08-05T07:05:10;57.83;;;53.65;;
55330;SDS011;58851;42.984;20.336;2022-08-05T07:07:40;51.78;;;48.25;;
55330;SDS011;58851;42.984;20.336;2022-08-05T07:10:07;57.67;;;53.85;;
55330;SDS011;58851;42.984;20.336;2022-08-05T07:12:34;56.92;;;52.58;;
55330;SDS011;58851;42.984;20.336;2022-08-05T07:15:19;57.65;;;53.83;;
55330;SDS011;58851;42.984;20.336;2022-08-05T07:18:03;49.60;;;45.55;;
55330;SDS011;58851;42.984;20.336;2022-08-05T07:20:29;42.00;;;37.67;;
55330;SDS011;58851;42.984;20.336;2022-08-05T07:22:55;56.60;;;52.78;;
55330;SDS011;58851;42.984;20.336;2022-08-05T07:25:21;38.42;;;35.22;;
55330;SDS011;58851;42.984;20.336;2022-08-05T07:27:50;59.83;;;55.92;;
55330;SDS011;58851;42.984;20.336;2022-08-05T07:30:17;62.60;;;58.67;;
55330;SDS011;58851;42.984;20.336;2022-08-05T07:32:43;64.30;;;60.30;;
55330;SDS011;58851;42.984;20.336;2022-08-05T07:35:10;58.85;;;53.95;;
55330;SDS011;58851;42.984;20.336;2022-08-05T07:37:37;41.00;;;37.42;;
55330;SDS011;58851;42.984;20.336;2022-08-05T07:40:03;48.75;;;45.60;;
55330;SDS011;58851;42.984;20.336;2022-08-05T07:42:30;45.78;;;42.42;;
55330;SDS011;58851;42.984;20.336;2022-08-05T07:44:57;35.53;;;32.22;;
55330;SDS011;58851;42.984;20.336;2022-08-05T07:47:23;65.95;;;61.88;;
55330;SDS011;58851;42.984;20.336;2022-08-05T07:49:49;51.90;;;48.45;;
55330;SDS011;58851;42.984;20.336;2022-08-05T07:52:19;76.53;;;72.45;;
55330;SDS011;58851;42.984;20.336;2022-08-05T07:54:45;81.22;;;76.75;;
55330;SDS011;58851;42.984;20.336;2022-08-05T07:57:11;92.25;;;87.72;;
55330;SDS011;58851;42.984;20.336;2022-08-05T07:59:38;75.80;;;71.60;;
55330;SDS011;58851;42.984;20.336;2022-08-05T08:02:03;80.15;;;75.65;;
55330;SDS011;58851;42.984;20.336;2022-08-05T08:04:31;82.93;;;77.75;;
55330;SDS011;58851;42.984;20.336;2022-08-05T08:06:57;90.50;;;85.43;;
55330;SDS011;58851;42.984;20.336;2022-08-05T08:09:25;68.55;;;64.25;;
55330;SDS011;58851;42.984;20.336;2022-08-05T08:11:51;92.15;;;86.93;;
55330;SDS011;58851;42.984;20.336;2022-08-05T08:14:17;94.53;;;89.50;;
55330;SDS011;58851;42.984;20.336;2022-08-05T08:16:43;70.60;;;66.55;;
55330;SDS011;58851;42.984;20.336;2022-08-05T08:19:09;71.45;;;66.47;;
55330;SDS011;58851;42.984;20.336;2022-08-05T08:21:35;62.88;;;58.65;;
55330;SDS011;58851;42.984;20.336;2022-08-05T08:24:00;97.65;;;92.75;;
55330;SDS011;58851;42.984;20.336;2022-08-05T08:26:26;74.15;;;69.97;;
55330;SDS011;58851;42.984;20.336;2022-08-05T08:28:52;89.05;;;84.40;;
55330;SDS011;58851;42.984;20.336;2022-08-05T08:31:18;86.13;;;81.78;;
55330;SDS011;58851;42.984;20.336;2022-08-05T08:33:44;87.90;;;83.47;;
55330;SDS011;58851;42.984;20.336;2022-08-05T08:36:11;85.05;;;81.00;;
55330;SDS011;58851;42.984;20.336;2022-08-05T08:38:37;84.30;;;79.78;;
55330;SDS011;58851;42.984;20.336;2022-08-05T08:41:04;110.47;;;104.90;;
55330;SDS011;58851;42.984;20.336;2022-08-05T08:43:32;92.25;;;87.53;;
55330;SDS011;58851;42.984;20.336;2022-08-05T08:46:02;85.28;;;81.13;;
55330;SDS011;58851;42.984;20.336;2022-08-05T08:48:30;82.43;;;78.50;;
55330;SDS011;58851;42.984;20.336;2022-08-05T08:50:57;82.30;;;78.40;;
55330;SDS011;58851;42.984;20.336;2022-08-05T08:53:24;73.10;;;69.47;;
55330;SDS011;58851;42.984;20.336;2022-08-05T08:55:52;73.35;;;69.75;;
55330;SDS011;58851;42.984;20.336;2022-08-05T08:58:18;80.68;;;76.82;;
55330;SDS011;58851;42.984;20.336;2022-08-05T09:00:45;71.57;;;67.88;;
55330;SDS011;58851;42.984;20.336;2022-08-05T09:03:12;62.38;;;58.92;;
55330;SDS011;58851;42.984;20.336;2022-08-05T09:05:38;81.30;;;77.40;;
55330;SDS011;58851;42.984;20.336;2022-08-05T09:08:04;79.05;;;75.05;;
55330;SDS011;58851;42.984;20.336;2022-08-05T09:10:30;62.33;;;59.15;;
55330;SDS011;58851;42.984;20.336;2022-08-05T09:12:56;76.88;;;73.07;;
55330;SDS011;58851;42.984;20.336;2022-08-05T09:15:22;77.55;;;73.63;;
55330;SDS011;58851;42.984;20.336;2022-08-05T09:17:48;73.78;;;69.97;;
55330;SDS011;58851;42.984;20.336;2022-08-05T09:20:15;71.43;;;68.00;;
55330;SDS011;58851;42.984;20.336;2022-08-05T09:25:38;72.45;;;68.93;;
55330;SDS011;58851;42.984;20.336;2022-08-05T09:28:10;73.65;;;70.15;;
55330;SDS011;58851;42.984;20.336;2022-08-05T09:30:43;61.80;;;58.50;;
55330;SDS011;58851;42.984;20.336;2022-08-05T09:33:17;62.63;;;59.42;;
55330;SDS011;58851;42.984;20.336;2022-08-05T09:35:54;73.72;;;69.95;;
55330;SDS011;58851;42.984;20.336;2022-08-05T09:38:24;65.65;;;62.47;;
55330;SDS011;58851;42.984;20.336;2022-08-05T09:40:50;62.88;;;59.67;;
55330;SDS011;58851;42.984;20.336;2022-08-05T09:43:34;68.80;;;65.45;;
55330;SDS011;58851;42.984;20.336;2022-08-05T09:46:02;68.90;;;65.53;;
55330;SDS011;58851;42.984;20.336;2022-08-05T09:48:31;71.88;;;68.28;;
55330;SDS011;58851;42.984;20.336;2022-08-05T09:51:05;77.88;;;74.03;;
55330;SDS011;58851;42.984;20.336;2022-08-05T09:53:49;62.33;;;58.97;;
55330;SDS011;58851;42.984;20.336;2022-08-05T09:56:29;68.38;;;64.53;;
55330;SDS011;58851;42.984;20.336;2022-08-05T09:59:09;61.85;;;58.78;;
55330;SDS011;58851;42.984;20.336;2022-08-05T10:01:40;63.28;;;60.30;;
55330;SDS011;58851;42.984;20.336;2022-08-05T10:04:11;53.97;;;51.30;;
55330;SDS011;58851;42.984;20.336;2022-08-05T10:06:39;96.90;;;91.95;;
55330;SDS011;58851;42.984;20.336;2022-08-05T10:09:18;65.55;;;62.35;;
55330;SDS011;58851;42.984;20.336;2022-08-05T10:11:48;61.92;;;58.95;;
55330;SDS011;58851;42.984;20.336;2022-08-05T10:14:29;56.65;;;53.83;;
55330;SDS011;58851;42.984;20.336;2022-08-05T10:16:56;69.03;;;65.53;;
55330;SDS011;58851;42.984;20.336;2022-08-05T10:19:36;59.20;;;56.22;;
55330;SDS011;58851;42.984;20.336;2022-08-05T10:22:02;54.83;;;51.92;;
55330;SDS011;58851;42.984;20.336;2022-08-05T10:24:29;163.02;;;153.70;;
55330;SDS011;58851;42.984;20.336;2022-08-05T10:26:57;59.55;;;56.65;;
55330;SDS011;58851;42.984;20.336;2022-08-05T10:29:24;59.10;;;56.30;;
55330;SDS011;58851;42.984;20.336;2022-08-05T10:31:51;67.43;;;64.28;;
55330;SDS011;58851;42.984;20.336;2022-08-05T10:34:17;67.80;;;64.60;;
55330;SDS011;58851;42.984;20.336;2022-08-05T10:36:44;63.83;;;60.72;;
55330;SDS011;58851;42.984;20.336;2022-08-05T10:39:14;89.47;;;85.03;;
55330;SDS011;58851;42.984;20.336;2022-08-05T10:41:58;59.00;;;56.17;;
55330;SDS011;58851;42.984;20.336;2022-08-05T10:44:34;91.05;;;86.60;;
55330;SDS011;58851;42.984;20.336;2022-08-05T10:47:08;53.92;;;51.05;;
55330;SDS011;58851;42.984;20.336;2022-08-05T10:52:46;53.35;;;50.50;;
55330;SDS011;58851;42.984;20.336;2022-08-05T10:55:24;61.67;;;58.35;;
55330;SDS011;58851;42.984;20.336;2022-08-05T10:58:04;52.67;;;49.97;;
55330;SDS011;58851;42.984;20.336;2022-08-05T11:00:34;53.33;;;50.58;;
55330;SDS011;58851;42.984;20.336;2022-08-05T11:03:07;66.32;;;62.60;;
55330;SDS011;58851;42.984;20.336;2022-08-05T11:05:34;88.90;;;84.57;;
55330;SDS011;58851;42.984;20.336;2022-08-05T11:08:05;88.38;;;83.72;;
55330;SDS011;58851;42.984;20.336;2022-08-05T11:10:34;50.65;;;48.17;;
55330;SDS011;58851;42.984;20.336;2022-08-05T11:13:05;61.00;;;58.08;;
55330;SDS011;58851;42.984;20.336;2022-08-05T11:15:32;58.45;;;55.53;;
55330;SDS011;58851;42.984;20.336;2022-08-05T11:20:56;90.28;;;85.50;;
55330;SDS011;58851;42.984;20.336;2022-08-05T11:23:33;116.85;;;110.72;;
55330;SDS011;58851;42.984;20.336;2022-08-05T11:26:02;47.50;;;45.15;;
55330;SDS011;58851;42.984;20.336;2022-08-05T11:36:12;41.40;;;39.25;;
55330;SDS011;58851;42.984;20.336;2022-08-05T11:41:12;60.38;;;57.28;;
55330;SDS011;58851;42.984;20.336;2022-08-05T11:43:52;53.53;;;50.70;;
55330;SDS011;58851;42.984;20.336;2022-08-05T11:46:31;52.58;;;49.67;;
55330;SDS011;58851;42.984;20.336;2022-08-05T11:49:06;63.95;;;60.95;;
55330;SDS011;58851;42.984;20.336;2022-08-05T11:51:33;49.88;;;47.13;;
55330;SDS011;58851;42.984;20.336;2022-08-05T11:53:59;57.28;;;54.38;;
55330;SDS011;58851;42.984;20.336;2022-08-05T11:56:41;61.92;;;58.60;;
55330;SDS011;58851;42.984;20.336;2022-08-05T11:59:14;46.80;;;44.35;;
55330;SDS011;58851;42.984;20.336;2022-08-05T12:01:51;75.82;;;72.28;;
55330;SDS011;58851;42.984;20.336;2022-08-05T12:04:39;69.55;;;65.88;;
55330;SDS011;58851;42.984;20.336;2022-08-05T12:07:07;47.22;;;44.80;;
55330;SDS011;58851;42.984;20.336;2022-08-05T12:09:38;44.78;;;41.72;;
55330;SDS011;58851;42.984;20.336;2022-08-05T12:12:06;51.13;;;48.47;;
55330;SDS011;58851;42.984;20.336;2022-08-05T12:14:39;52.38;;;49.25;;
55330;SDS011;58851;42.984;20.336;2022-08-05T12:17:07;55.67;;;52.63;;
55330;SDS011;58851;42.984;20.336;2022-08-05T12:22:08;60.77;;;57.67;;
55330;SDS011;58851;42.984;20.336;2022-08-05T12:24:40;74.57;;;70.80;;
55330;SDS011;58851;42.984;20.336;2022-08-05T12:27:07;70.57;;;66.80;;
55330;SDS011;58851;42.984;20.336;2022-08-05T12:29:34;71.80;;;68.15;;
55330;SDS011;58851;42.984;20.336;2022-08-05T12:32:00;87.50;;;83.32;;
55330;SDS011;58851;42.984;20.336;2022-08-05T12:34:26;63.53;;;60.20;;
55330;SDS011;58851;42.984;20.336;2022-08-05T12:36:56;73.50;;;69.13;;
55330;SDS011;58851;42.984;20.336;2022-08-05T12:39:25;105.88;;;99.65;;
55330;SDS011;58851;42.984;20.336;2022-08-05T12:41:56;94.88;;;88.40;;
55330;SDS011;58851;42.984;20.336;2022-08-05T12:44:25;50.92;;;48.22;;
55330;SDS011;58851;42.984;20.336;2022-08-05T12:46:52;77.07;;;73.10;;
55330;SDS011;58851;42.984;20.336;2022-08-05T12:49:19;82.75;;;78.43;;
55330;SDS011;58851;42.984;20.336;2022-08-05T12:51:46;81.15;;;76.85;;
55330;SDS011;58851;42.984;20.336;2022-08-05T12:56:59;103.55;;;98.20;;
55330;SDS011;58851;42.984;20.336;2022-08-05T12:59:27;74.80;;;71.20;;
55330;SDS011;58851;42.984;20.336;2022-08-05T13:02:21;88.22;;;84.00;;
55330;SDS011;58851;42.984;20.336;2022-08-05T13:04:49;92.45;;;87.78;;
55330;SDS011;58851;42.984;20.336;2022-08-05T13:07:17;80.63;;;76.70;;
55330;SDS011;58851;42.984;20.336;2022-08-05T13:09:51;78.15;;;74.18;;
55330;SDS011;58851;42.984;20.336;2022-08-05T13:12:20;97.22;;;92.15;;
55330;SDS011;58851;42.984;20.336;2022-08-05T13:14:52;138.07;;;130.77;;
55330;SDS011;58851;42.984;20.336;2022-08-05T13:17:26;84.80;;;80.45;;
55330;SDS011;58851;42.984;20.336;2022-08-05T13:20:04;98.38;;;93.43;;
55330;SDS011;58851;42.984;20.336;2022-08-05T13:22:37;67.00;;;62.95;;
55330;SDS011;58851;42.984;20.336;2022-08-05T13:25:06;84.38;;;80.10;;
55330;SDS011;58851;42.984;20.336;2022-08-05T13:30:04;74.10;;;70.45;;
55330;SDS011;58851;42.984;20.336;2022-08-05T13:32:31;73.63;;;70.05;;
55330;SDS011;58851;42.984;20.336;2022-08-05T13:34:57;79.60;;;75.47;;
55330;SDS011;58851;42.984;20.336;2022-08-05T13:37:23;77.13;;;72.90;;
55330;SDS011;58851;42.984;20.336;2022-08-05T13:39:49;74.88;;;71.35;;
55330;SDS011;58851;42.984;20.336;2022-08-05T13:42:18;60.80;;;57.85;;
55330;SDS011;58851;42.984;20.336;2022-08-05T13:44:45;66.50;;;63.22;;
55330;SDS011;58851;42.984;20.336;2022-08-05T13:47:12;61.47;;;58.20;;
55330;SDS011;58851;42.984;20.336;2022-08-05T13:49:38;61.25;;;58.10;;
55330;SDS011;58851;42.984;20.336;2022-08-05T13:54:39;53.33;;;50.63;;
55330;SDS011;58851;42.984;20.336;2022-08-05T13:57:06;51.38;;;48.72;;
55330;SDS011;58851;42.984;20.336;2022-08-05T13:59:33;50.65;;;48.05;;
55330;SDS011;58851;42.984;20.336;2022-08-05T14:02:00;54.42;;;51.42;;
55330;SDS011;58851;42.984;20.336;2022-08-05T14:07:12;45.17;;;42.95;;
55330;SDS011;58851;42.984;20.336;2022-08-05T14:09:37;39.83;;;37.83;;
55330;SDS011;58851;42.984;20.336;2022-08-05T14:12:05;44.78;;;41.88;;
55330;SDS011;58851;42.984;20.336;2022-08-05T14:14:30;47.00;;;44.70;;
55330;SDS011;58851;42.984;20.336;2022-08-05T14:16:56;39.50;;;37.40;;
55330;SDS011;58851;42.984;20.336;2022-08-05T14:19:22;58.15;;;54.78;;
55330;SDS011;58851;42.984;20.336;2022-08-05T14:21:48;42.25;;;39.95;;
55330;SDS011;58851;42.984;20.336;2022-08-05T14:24:14;41.75;;;39.28;;
55330;SDS011;58851;42.984;20.336;2022-08-05T14:26:40;35.00;;;33.28;;
55330;SDS011;58851;42.984;20.336;2022-08-05T14:29:06;34.85;;;32.95;;
55330;SDS011;58851;42.984;20.336;2022-08-05T14:31:32;46.03;;;43.55;;
55330;SDS011;58851;42.984;20.336;2022-08-05T14:33:58;40.33;;;38.03;;
55330;SDS011;58851;42.984;20.336;2022-08-05T14:36:24;38.92;;;36.75;;
55330;SDS011;58851;42.984;20.336;2022-08-05T14:38:51;36.97;;;34.85;;
55330;SDS011;58851;42.984;20.336;2022-08-05T14:41:17;54.72;;;51.75;;
55330;SDS011;58851;42.984;20.336;2022-08-05T14:43:42;33.10;;;31.10;;
55330;SDS011;58851;42.984;20.336;2022-08-05T14:46:08;52.38;;;49.63;;
55330;SDS011;58851;42.984;20.336;2022-08-05T14:48:34;121.50;;;114.85;;
55330;SDS011;58851;42.984;20.336;2022-08-05T14:51:00;55.88;;;52.63;;
55330;SDS011;58851;42.984;20.336;2022-08-05T14:53:26;40.92;;;38.63;;
55330;SDS011;58851;42.984;20.336;2022-08-05T14:55:52;41.08;;;38.88;;
55330;SDS011;58851;42.984;20.336;2022-08-05T14:58:18;47.05;;;44.63;;
55330;SDS011;58851;42.984;20.336;2022-08-05T15:00:43;53.10;;;50.42;;